createdAt,value
2022-10-02T00:02:39.070Z,23.3
2022-10-02T00:08:01.540Z,23.2
2022-10-02T00:13:44.033Z,23.1
2022-10-02T00:19:22.135Z,23.1
2022-10-02T00:24:59.600Z,23.1
2022-10-02T00:30:21.396Z,23
2022-10-02T00:35:43.450Z,22.9
2022-10-02T00:41:21.166Z,22.9
2022-10-02T00:46:57.343Z,22.9
2022-10-02T00:52:34.231Z,22.9
2022-10-02T00:57:55.722Z,22.9
2022-10-02T01:03:32.303Z,22.8
2022-10-02T01:08:54.503Z,22.8
2022-10-02T01:14:15.933Z,22.8
2022-10-02T01:19:52.951Z,22.8
2022-10-02T01:25:30.418Z,22.8
2022-10-02T01:30:53.164Z,22.8
2022-10-02T01:36:29.300Z,22.8
2022-10-02T01:42:06.441Z,22.7
2022-10-02T01:47:28.705Z,22.7
2022-10-02T01:53:05.708Z,22.7
2022-10-02T01:58:43.404Z,22.6
2022-10-02T02:04:21.665Z,22.6
2022-10-02T02:09:59.252Z,22.6
2022-10-02T02:15:20.704Z,22.6
2022-10-02T02:20:59.212Z,22.6
2022-10-02T02:26:04.835Z,22.6
2022-10-02T02:31:43.550Z,22.6
2022-10-02T02:37:20.157Z,22.6
2022-10-02T02:42:59.061Z,22.6
2022-10-02T02:48:37.367Z,22.6
2022-10-02T02:54:14.796Z,22.6
2022-10-02T02:59:57.709Z,22.6
2022-10-02T03:05:36.393Z,22.6
2022-10-02T03:11:13.625Z,22.6
2022-10-02T03:16:50.694Z,22.6
2022-10-02T03:22:28.413Z,22.6
2022-10-02T03:28:08.113Z,22.6
2022-10-02T03:34:11.061Z,22.5
2022-10-02T03:40:18.157Z,22.5
2022-10-02T03:46:19.814Z,22.5
2022-10-02T03:51:43.667Z,22.4
2022-10-02T03:57:06.120Z,22.4
2022-10-02T04:02:27.241Z,22.4
2022-10-02T04:08:09.116Z,22.4
2022-10-02T04:13:16.312Z,22.4
2022-10-02T04:18:22.110Z,22.4
2022-10-02T04:23:28.096Z,22.4
2022-10-02T04:28:35.611Z,22.4
2022-10-02T04:33:42.016Z,22.3
2022-10-02T04:38:32.119Z,22.3
2022-10-02T04:43:59.587Z,22.3
2022-10-02T04:49:37.360Z,22.3
2022-10-02T04:55:13.393Z,22.3
2022-10-02T05:00:36.094Z,22.4
2022-10-02T05:06:16.021Z,22.3
2022-10-02T05:11:57.769Z,22.3
2022-10-02T05:17:35.218Z,22.4
2022-10-02T05:22:57.576Z,22.4
2022-10-02T05:28:38.595Z,22.4
2022-10-02T05:33:48.174Z,22.3
2022-10-02T05:38:55.305Z,22.4
2022-10-02T05:43:49.154Z,22.4
2022-10-02T05:48:55.414Z,22.4
2022-10-02T05:54:02.222Z,22.4
2022-10-02T05:59:25.269Z,22.4
2022-10-02T06:04:50.744Z,22.4
2022-10-02T06:09:42.122Z,22.4
2022-10-02T06:15:07.286Z,22.5
2022-10-02T06:20:49.320Z,22.6
2022-10-02T06:26:11.973Z,29.4
2022-10-02T06:31:54.464Z,29.8
2022-10-02T06:37:01.363Z,30.9
2022-10-02T06:42:39.195Z,32.1
2022-10-02T06:47:45.090Z,33.1
2022-10-02T06:52:54.808Z,34.2
2022-10-02T06:58:02.290Z,35.2
2022-10-02T07:03:08.679Z,36.3
2022-10-02T07:08:31.137Z,37.3
2022-10-02T07:13:53.865Z,38.4
2022-10-02T07:19:34.162Z,39.3
2022-10-02T07:25:24.666Z,40.5
2022-10-02T07:30:47.241Z,41.4
2022-10-02T07:36:15.767Z,42.2
2022-10-02T07:41:53.754Z,43.1
2022-10-02T07:47:32.411Z,43.9
2022-10-02T07:53:15.818Z,44.8
2022-10-02T07:58:53.427Z,45.4
2022-10-02T08:04:36.128Z,46.2
2022-10-02T08:10:14.609Z,47.1
2022-10-02T08:15:51.456Z,47.8
2022-10-02T08:21:41.127Z,48.6
2022-10-02T08:27:23.730Z,49.2
2022-10-02T08:33:06.913Z,49.1
2022-10-02T08:38:44.179Z,49.4
2022-10-02T08:44:05.272Z,50.4
2022-10-02T08:49:43.254Z,51.2
2022-10-02T08:55:21.398Z,51.8
2022-10-02T09:05:57.289Z,53
2022-10-02T09:10:54.654Z,53.5
2022-10-02T09:16:21.171Z,54.1
2022-10-02T09:21:44.561Z,54.7
2022-10-02T09:26:52.327Z,55.3
2022-10-02T09:32:14.316Z,55.8
2022-10-02T09:37:51.216Z,56.3
2022-10-02T09:43:28.696Z,56.9
2022-10-02T09:49:06.794Z,57.4
2022-10-02T09:54:43.941Z,57.6
2022-10-02T10:00:21.713Z,53.5
2022-10-02T10:06:28.567Z,50.4
2022-10-02T10:12:06.697Z,51.2
2022-10-02T10:17:44.960Z,51.3
2022-10-02T10:23:25.455Z,53.1
2022-10-02T10:29:03.764Z,54.9
2022-10-02T10:34:41.947Z,55.7
2022-10-02T10:40:08.372Z,56.8
2022-10-02T10:45:52.640Z,57.6
2022-10-02T10:53:03.051Z,58.3
2022-10-02T10:58:43.728Z,58.9
2022-10-02T11:04:11.015Z,59.5
2022-10-02T11:09:33.271Z,60
2022-10-02T11:14:55.649Z,60.4
2022-10-02T11:20:17.708Z,60.9
2022-10-02T11:25:45.258Z,61.3
2022-10-02T11:31:22.020Z,61.6
2022-10-02T11:37:00.311Z,61.9
2022-10-02T11:42:37.629Z,62.2
2022-10-02T11:48:15.647Z,62.4
2022-10-02T11:53:54.482Z,62.7
2022-10-02T11:59:32.552Z,62.9
2022-10-02T12:05:11.101Z,63.1
2022-10-02T12:10:48.200Z,63.2
2022-10-02T12:16:26.877Z,63.3
2022-10-02T12:21:49.095Z,63.4
2022-10-02T12:27:26.501Z,63.5
2022-10-02T12:33:04.193Z,63.6
2022-10-02T12:38:44.052Z,63.6
2022-10-02T12:44:26.224Z,63.6
2022-10-02T12:49:48.431Z,63.6
2022-10-02T12:55:25.756Z,63.4
2022-10-02T13:01:02.425Z,63.4
2022-10-02T13:07:09.511Z,63.2
2022-10-02T13:12:33.161Z,62.9
2022-10-02T13:18:15.511Z,62.3
2022-10-02T13:23:57.648Z,61.8
2022-10-02T13:29:37.401Z,60.9
2022-10-02T13:35:16.258Z,60.1
2022-10-02T13:40:54.494Z,55.7
2022-10-02T13:46:32.223Z,56.6
2022-10-02T13:52:13.063Z,58.1
2022-10-02T13:57:54.695Z,57.4
2022-10-02T14:03:33.311Z,56.9
2022-10-02T14:09:10.775Z,56.6
2022-10-02T14:14:52.951Z,56
2022-10-02T14:20:30.271Z,55.1
2022-10-02T14:26:07.416Z,54.5
2022-10-02T14:31:44.950Z,50.9
2022-10-02T14:37:24.038Z,48.1
2022-10-02T14:43:01.481Z,45.8
2022-10-02T14:48:39.506Z,43.9
2022-10-02T14:54:17.034Z,42.5
2022-10-02T15:22:35.259Z,38.4
2022-10-02T15:28:37.297Z,37.9
2022-10-02T15:34:17.361Z,37.4
2022-10-02T15:39:55.148Z,36.9
2022-10-02T15:45:36.194Z,36.6
2022-10-02T15:51:13.175Z,36.2
2022-10-02T15:56:55.722Z,35.9
2022-10-02T16:02:34.646Z,35.4
2022-10-02T16:08:11.156Z,35.1
2022-10-02T16:13:49.147Z,34.8
2022-10-02T16:19:27.926Z,34.5
2022-10-02T16:26:23.163Z,34.3
2022-10-02T16:31:46.426Z,34.1
2022-10-02T16:37:09.072Z,33.9
2022-10-02T16:42:48.247Z,33.6
2022-10-02T16:48:11.199Z,33.3
2022-10-02T16:53:49.771Z,32.9
2022-10-02T16:59:29.927Z,32.6
2022-10-02T17:05:36.543Z,32.3
2022-10-02T17:10:58.723Z,32.1
2022-10-02T17:16:38.297Z,31.9
2022-10-02T17:22:15.997Z,31.8
2022-10-02T17:27:54.022Z,31.7
2022-10-02T17:33:40.639Z,31.6
2022-10-02T17:39:18.477Z,31.4
2022-10-02T17:45:01.481Z,31.4
2022-10-02T17:50:39.051Z,31.3
2022-10-02T17:56:50.643Z,31.3
2022-10-02T18:02:33.470Z,31.1
2022-10-02T18:07:55.073Z,30.4
2022-10-02T18:13:34.677Z,29.7
2022-10-02T18:18:47.615Z,28.9
2022-10-02T18:24:09.165Z,28.4
2022-10-02T18:29:31.979Z,28.1
2022-10-02T18:35:19.376Z,27.6
2022-10-02T18:40:56.773Z,27.4
2022-10-02T18:46:33.982Z,27.1
2022-10-02T18:51:59.468Z,26.9
2022-10-02T18:57:41.898Z,26.7
2022-10-02T19:03:05.258Z,26.5
2022-10-02T19:08:43.688Z,26.3
2022-10-02T19:14:24.322Z,26.2
2022-10-02T19:20:02.236Z,26.1
2022-10-02T19:25:24.774Z,26
2022-10-02T19:31:02.757Z,25.9
2022-10-02T19:36:24.651Z,25.8
2022-10-02T19:42:09.139Z,25.8
2022-10-02T19:47:51.730Z,25.6
2022-10-02T19:53:29.717Z,25.6
2022-10-02T19:58:57.198Z,25.5
2022-10-02T20:04:35.920Z,25.4
2022-10-02T20:09:46.861Z,25.4
2022-10-02T20:15:27.676Z,25.3
2022-10-02T20:21:04.845Z,25.2
2022-10-02T20:26:42.233Z,25.1
2022-10-02T20:32:20.674Z,25.1
